Time;durP1;ratioP1;P1;durP2;ratioP2;P2;SDS_P1;SDS_P2;PMS_P1;PMS_P2;Temp;Humidity;BMP_temperature;BMP_pressure;BME280_temperature;BME280_humidity;BME280_pressure;Samples;Min_cycle;Max_cycle;Signal;HPM_P1;HPM_P2
2022/08/21 00:02:18;;;;;;;9.63;5.95;;;15.70;99.90;;;;;;4920653;29;20538;-77
2022/08/21 00:04:45;;;;;;;14.02;5.88;;;15.80;99.90;;;;;;4920744;29;20044;-77
2022/08/21 00:07:10;;;;;;;10.93;5.78;;;15.80;99.90;;;;;;4920755;29;20040;-77
2022/08/21 00:09:37;;;;;;;10.75;5.25;;;15.80;99.90;;;;;;4919101;29;20054;-77
2022/08/21 00:12:04;;;;;;;10.85;6.03;;;15.70;99.90;;;;;;4914525;29;20124;-77
2022/08/21 00:14:30;;;;;;;10.02;6.13;;;15.70;99.90;;;;;;4920654;29;20048;-77
2022/08/21 00:16:56;;;;;;;9.13;5.53;;;15.70;99.90;;;;;;4920555;29;20123;-77
2022/08/21 00:19:24;;;;;;;10.23;4.95;;;15.80;99.90;;;;;;4920504;29;20132;-77
2022/08/21 00:21:51;;;;;;;11.48;5.35;;;15.70;99.90;;;;;;4920491;29;20088;-77
2022/08/21 00:24:18;;;;;;;11.20;5.28;;;15.70;99.90;;;;;;4920024;29;20064;-77
2022/08/21 00:26:44;;;;;;;9.55;5.38;;;15.70;99.90;;;;;;4911788;29;20064;-77
2022/08/21 00:29:09;;;;;;;9.90;5.68;;;15.80;99.90;;;;;;4919090;29;20044;-77
2022/08/21 00:31:35;;;;;;;10.63;5.85;;;15.80;99.90;;;;;;4920295;29;20055;-77
2022/08/21 00:34:01;;;;;;;10.95;6.60;;;15.70;99.90;;;;;;4920106;29;20040;-77
2022/08/21 00:36:27;;;;;;;11.35;5.88;;;15.70;99.90;;;;;;4917449;29;20377;-77
2022/08/21 00:38:53;;;;;;;13.43;6.50;;;15.70;99.90;;;;;;4920181;29;20062;-77
2022/08/21 00:41:18;;;;;;;10.95;6.93;;;15.70;99.90;;;;;;4916401;29;20547;-77
2022/08/21 00:43:44;;;;;;;11.18;6.65;;;15.70;99.90;;;;;;4918770;29;20054;-77
2022/08/21 00:46:10;;;;;;;12.43;6.78;;;15.60;99.90;;;;;;4920246;29;20134;-77
2022/08/21 00:48:36;;;;;;;13.82;6.68;;;15.60;99.90;;;;;;4918374;29;20044;-77
2022/08/21 00:51:13;;;;;;;12.25;6.53;;;15.60;99.90;;;;;;4919974;29;20036;-77
2022/08/21 00:53:43;;;;;;;11.55;6.53;;;15.50;99.90;;;;;;4919951;29;20500;-77
2022/08/21 00:56:11;;;;;;;13.88;6.43;;;15.50;99.90;;;;;;4919897;29;20075;-77
2022/08/21 00:58:41;;;;;;;13.63;7.47;;;15.50;99.90;;;;;;4920007;29;20071;-77
2022/08/21 01:01:08;;;;;;;16.90;8.00;;;15.50;99.90;;;;;;4919742;29;20051;-76
2022/08/21 01:03:35;;;;;;;12.57;7.72;;;15.50;99.90;;;;;;4918011;29;20048;-77
2022/08/21 01:06:01;;;;;;;14.48;7.40;;;15.40;99.90;;;;;;4913523;29;20058;-77
2022/08/21 01:08:28;;;;;;;12.70;8.05;;;15.40;99.90;;;;;;4919705;29;20040;-77
2022/08/21 01:10:55;;;;;;;12.65;7.78;;;15.40;99.90;;;;;;4912696;29;20445;-77
2022/08/21 01:13:23;;;;;;;17.15;7.60;;;15.40;99.90;;;;;;4919390;29;20096;-77
2022/08/21 01:15:52;;;;;;;14.73;8.50;;;15.40;99.90;;;;;;4919549;29;20044;-77
2022/08/21 01:18:19;;;;;;;11.88;8.30;;;15.30;99.90;;;;;;4915440;29;20126;-77
2022/08/21 01:21:02;;;;;;;17.33;8.60;;;15.30;99.90;;;;;;4911169;29;20051;-77
2022/08/21 01:23:28;;;;;;;;;;;15.30;99.90;;;;;;4918170;29;20547;-77
2022/08/21 01:25:53;;;;;;;12.52;7.90;;;15.30;99.90;;;;;;4912157;29;19958;-77
2022/08/21 01:28:21;;;;;;;15.10;7.75;;;15.30;99.90;;;;;;4918248;29;20044;-77
2022/08/21 01:30:48;;;;;;;13.48;7.78;;;15.30;99.90;;;;;;4919185;29;20048;-77
2022/08/21 01:33:14;;;;;;;11.07;7.97;;;15.30;99.90;;;;;;4914575;29;20123;-77
2022/08/21 01:35:39;;;;;;;12.60;7.43;;;15.30;99.90;;;;;;4917874;29;20127;-77
2022/08/21 01:38:05;;;;;;;15.80;8.70;;;15.30;99.90;;;;;;4919167;29;20132;-77
2022/08/21 01:40:31;;;;;;;12.50;7.90;;;15.30;99.90;;;;;;4919109;29;20040;-77
2022/08/21 01:42:56;;;;;;;14.77;7.32;;;15.30;99.90;;;;;;4919050;29;20404;-76
2022/08/21 01:45:23;;;;;;;13.80;8.10;;;15.30;99.90;;;;;;4918913;29;20044;-77
2022/08/21 01:47:48;;;;;;;13.75;8.35;;;15.30;99.90;;;;;;4910974;29;20075;-77
2022/08/21 01:50:18;;;;;;;11.13;7.32;;;15.30;99.90;;;;;;4918770;29;20134;-76
2022/08/21 01:52:43;;;;;;;17.98;7.85;;;15.30;99.90;;;;;;4918870;29;20048;-77
2022/08/21 01:55:10;;;;;;;13.57;7.57;;;15.30;99.90;;;;;;4913238;29;20058;-76
2022/08/21 01:57:36;;;;;;;12.48;7.60;;;15.30;99.90;;;;;;4917554;29;20052;-76
2022/08/21 02:00:05;;;;;;;16.85;8.15;;;15.30;99.90;;;;;;4918718;29;20077;-77
2022/08/21 02:02:31;;;;;;;11.65;7.60;;;15.20;99.90;;;;;;4916445;29;20051;-76
2022/08/21 02:04:56;;;;;;;13.88;7.85;;;15.30;99.90;;;;;;4911808;29;20044;-77
2022/08/21 02:07:22;;;;;;;12.63;7.80;;;15.20;99.90;;;;;;4918388;29;20044;-76
2022/08/21 02:09:48;;;;;;;14.90;8.15;;;15.20;99.90;;;;;;4910605;29;20134;-77
2022/08/21 02:12:13;;;;;;;13.48;7.72;;;15.10;99.90;;;;;;4918572;29;20059;-76
2022/08/21 02:14:39;;;;;;;12.57;7.80;;;15.20;99.90;;;;;;4918379;29;20047;-77
2022/08/21 02:17:05;;;;;;;13.77;7.68;;;15.10;99.90;;;;;;4918469;29;20128;-76
2022/08/21 02:19:30;;;;;;;10.88;7.55;;;15.20;99.90;;;;;;4918102;29;20087;-77
2022/08/21 02:21:56;;;;;;;16.20;8.15;;;15.20;99.90;;;;;;4918337;29;20047;-77
2022/08/21 02:24:22;;;;;;;16.20;8.35;;;15.20;99.90;;;;;;4917847;29;20571;-76
2022/08/21 02:26:47;;;;;;;16.50;8.60;;;15.20;99.90;;;;;;4918242;29;20103;-76
2022/08/21 02:29:13;;;;;;;16.60;8.40;;;15.10;99.90;;;;;;4918156;29;20051;-76
2022/08/21 02:31:39;;;;;;;14.45;9.27;;;15.20;99.90;;;;;;4918031;29;20092;-76
2022/08/21 02:34:04;;;;;;;12.52;8.32;;;15.10;99.90;;;;;;4912644;29;20056;-76
2022/08/21 02:36:30;;;;;;;15.68;8.88;;;15.10;99.90;;;;;;4918096;29;20044;-76
2022/08/21 02:38:56;;;;;;;14.07;8.95;;;15.10;99.90;;;;;;4917934;29;20048;-76
2022/08/21 02:41:22;;;;;;;15.23;8.85;;;15.10;99.90;;;;;;4918055;29;20047;-77
2022/08/21 02:43:48;;;;;;;13.90;8.55;;;15.10;99.90;;;;;;4917905;29;20048;-77
2022/08/21 02:46:17;;;;;;;12.32;8.40;;;15.10;99.90;;;;;;4918130;29;20107;-77
2022/08/21 02:48:43;;;;;;;10.93;8.50;;;15.10;99.90;;;;;;4910572;29;20048;-77
2022/08/21 02:51:12;;;;;;;13.23;8.30;;;15.10;99.90;;;;;;4917839;29;20058;-76
2022/08/21 02:53:39;;;;;;;14.43;8.85;;;15.10;99.90;;;;;;4916602;29;20416;-76
2022/08/21 02:56:08;;;;;;;12.77;8.48;;;15.00;99.90;;;;;;4917800;29;20059;-76
2022/08/21 02:58:45;;;;;;;14.88;9.30;;;15.00;99.90;;;;;;4917795;29;20070;-77
2022/08/21 03:01:12;;;;;;;14.80;9.30;;;15.00;99.90;;;;;;4917763;29;20127;-77
2022/08/21 03:03:41;;;;;;;15.30;8.80;;;15.00;99.90;;;;;;4917493;29;20135;-77
2022/08/21 03:06:08;;;;;;;15.98;8.80;;;15.00;99.90;;;;;;4911901;29;20052;-76
2022/08/21 03:08:34;;;;;;;14.63;8.63;;;15.00;99.90;;;;;;4917472;29;20487;-77
2022/08/21 03:11:01;;;;;;;13.82;8.85;;;15.00;99.90;;;;;;4911135;29;20143;-77
2022/08/21 03:13:27;;;;;;;12.52;8.65;;;15.00;99.90;;;;;;4917625;29;20052;-77
2022/08/21 03:15:54;;;;;;;14.00;8.85;;;14.90;99.90;;;;;;4917578;29;20115;-76
2022/08/21 03:18:20;;;;;;;13.75;8.65;;;14.90;99.90;;;;;;4913659;29;20040;-76
2022/08/21 03:20:46;;;;;;;14.98;9.13;;;14.90;99.90;;;;;;4909262;29;20099;-76
2022/08/21 03:23:13;;;;;;;14.10;9.65;;;14.90;99.90;;;;;;4917253;29;20478;-77
2022/08/21 03:25:39;;;;;;;15.18;9.95;;;14.90;99.90;;;;;;4915848;29;20544;-77
2022/08/21 03:28:07;;;;;;;16.65;8.88;;;14.90;99.90;;;;;;4911777;29;20048;-77
2022/08/21 03:30:33;;;;;;;14.23;9.45;;;14.90;99.90;;;;;;4917512;29;20071;-77
2022/08/21 03:32:59;;;;;;;16.15;9.57;;;14.90;99.90;;;;;;4911106;29;20381;-77
2022/08/21 03:35:27;;;;;;;14.63;9.10;;;14.90;99.90;;;;;;4916386;29;20044;-77
2022/08/21 03:37:54;;;;;;;18.98;9.57;;;14.90;99.90;;;;;;4910241;29;20096;-77
2022/08/21 03:40:24;;;;;;;16.50;9.10;;;14.90;99.90;;;;;;4917361;29;20040;-77
2022/08/21 03:42:50;;;;;;;16.58;8.98;;;14.90;99.90;;;;;;4917158;29;20476;-76
2022/08/21 03:45:18;;;;;;;13.45;8.65;;;14.90;99.90;;;;;;4917267;29;20127;-77
2022/08/21 03:47:57;;;;;;;15.90;9.35;;;14.90;99.90;;;;;;4917232;29;20054;-77
2022/08/21 03:50:29;;;;;;;16.17;8.93;;;14.90;99.90;;;;;;4914126;29;20063;-77
2022/08/21 03:52:55;;;;;;;15.63;8.83;;;14.90;99.90;;;;;;4917342;29;20041;-77
2022/08/21 03:55:22;;;;;;;16.73;9.13;;;14.90;99.90;;;;;;4913413;29;20127;-77
2022/08/21 03:57:48;;;;;;;17.20;8.80;;;14.90;99.90;;;;;;4917222;29;20071;-76
2022/08/21 04:00:15;;;;;;;13.25;8.68;;;14.90;99.90;;;;;;4917164;29;20484;-76
2022/08/21 04:02:42;;;;;;;17.88;9.20;;;14.90;99.90;;;;;;4909520;29;20126;-76
2022/08/21 04:05:08;;;;;;;14.07;7.97;;;14.80;99.90;;;;;;4911627;29;20048;-76
2022/08/21 04:07:34;;;;;;;16.95;8.95;;;14.90;99.90;;;;;;4916952;29;20056;-76
2022/08/21 04:09:59;;;;;;;15.05;8.35;;;14.80;99.90;;;;;;4910744;29;20100;-77
2022/08/21 04:12:25;;;;;;;16.55;8.55;;;14.80;99.90;;;;;;4916936;29;20062;-76
2022/08/21 04:14:51;;;;;;;17.23;7.72;;;14.70;99.90;;;;;;4909659;29;20503;-76
2022/08/21 04:17:17;;;;;;;18.10;9.35;;;14.80;99.90;;;;;;4915671;29;20551;-77
2022/08/21 04:19:43;;;;;;;13.93;8.02;;;14.80;99.90;;;;;;4920297;29;20082;-76
2022/08/21 04:22:09;;;;;;;13.60;7.45;;;14.80;99.90;;;;;;4914610;29;20079;-76
2022/08/21 04:24:35;;;;;;;15.80;7.80;;;14.80;99.90;;;;;;4918080;29;20481;-77
2022/08/21 04:27:01;;;;;;;13.15;8.40;;;14.90;99.90;;;;;;4920314;29;20052;-77
2022/08/21 04:29:26;;;;;;;16.98;7.82;;;14.90;99.90;;;;;;4920335;29;20040;-77
2022/08/21 04:31:52;;;;;;;15.15;7.70;;;14.80;99.90;;;;;;4920193;29;20048;-77
2022/08/21 04:34:18;;;;;;;14.25;8.32;;;14.90;99.90;;;;;;4920008;29;20079;-77
2022/08/21 04:36:44;;;;;;;16.88;8.13;;;14.90;99.90;;;;;;4920155;29;20476;-77
2022/08/21 04:39:10;;;;;;;14.30;7.45;;;14.80;99.90;;;;;;4914826;29;20047;-77
2022/08/21 04:41:36;;;;;;;13.88;7.75;;;14.90;99.90;;;;;;4918863;29;20055;-77
2022/08/21 04:44:02;;;;;;;14.00;7.53;;;14.90;99.90;;;;;;4919994;29;20044;-77
2022/08/21 04:46:29;;;;;;;14.98;7.55;;;14.80;99.90;;;;;;4919771;29;20056;-76
2022/08/21 04:48:55;;;;;;;14.27;8.02;;;14.90;99.90;;;;;;4920219;29;20131;-77
2022/08/21 04:51:28;;;;;;;15.13;8.25;;;14.90;99.90;;;;;;4919964;29;20115;-77
2022/08/21 04:54:10;;;;;;;14.07;8.70;;;14.90;99.90;;;;;;4912714;29;20052;-77
2022/08/21 04:56:45;;;;;;;11.60;7.70;;;14.90;99.90;;;;;;4918607;29;20409;-77
2022/08/21 04:59:16;;;;;;;13.35;7.30;;;14.90;99.90;;;;;;4919779;29;20292;-77
2022/08/21 05:01:42;;;;;;;13.15;8.15;;;14.90;99.90;;;;;;4912248;29;20052;-77
2022/08/21 05:04:12;;;;;;;11.80;7.25;;;15.00;99.90;;;;;;4919496;29;20512;-77
2022/08/21 05:06:41;;;;;;;13.73;7.70;;;15.00;99.90;;;;;;4919411;29;20131;-77
2022/08/21 05:09:09;;;;;;;13.68;7.70;;;15.00;99.90;;;;;;4919547;29;20051;-77
2022/08/21 05:11:35;;;;;;;14.18;7.90;;;15.00;99.90;;;;;;4917802;29;20052;-77
2022/08/21 05:14:00;;;;;;;15.25;7.55;;;15.00;99.90;;;;;;4913005;29;20107;-77
2022/08/21 05:16:26;;;;;;;17.13;7.60;;;15.00;99.90;;;;;;4919541;29;20127;-77
2022/08/21 05:18:52;;;;;;;16.50;8.25;;;15.10;99.90;;;;;;4919494;29;20046;-77
2022/08/21 05:21:17;;;;;;;14.85;7.78;;;15.10;99.90;;;;;;4915101;29;20040;-77
2022/08/21 05:23:43;;;;;;;14.38;8.13;;;15.10;99.90;;;;;;4919049;29;20144;-77
2022/08/21 05:26:09;;;;;;;13.57;7.82;;;15.10;99.90;;;;;;4913917;29;20408;-77
2022/08/21 05:28:35;;;;;;;15.07;8.85;;;15.10;99.90;;;;;;4918068;29;20063;-77
2022/08/21 05:31:00;;;;;;;12.52;8.73;;;15.20;99.90;;;;;;4912132;29;20448;-77
2022/08/21 05:33:26;;;;;;;10.73;7.35;;;15.20;99.90;;;;;;4919310;29;20044;-77
2022/08/21 05:35:55;;;;;;;14.73;7.80;;;15.20;99.90;;;;;;4919218;29;20047;-77
2022/08/21 05:38:21;;;;;;;13.43;7.75;;;15.30;99.90;;;;;;4918993;29;20054;-77
2022/08/21 05:40:47;;;;;;;17.85;8.43;;;15.30;99.90;;;;;;4919034;29;20077;-77
2022/08/21 05:43:14;;;;;;;14.55;8.43;;;15.40;99.90;;;;;;4919015;29;20079;-77
2022/08/21 05:45:40;;;;;;;17.42;8.25;;;15.40;99.90;;;;;;4918893;29;20131;-77
2022/08/21 05:48:15;;;;;;;16.70;8.75;;;15.40;99.90;;;;;;4913109;29;20048;-77
2022/08/21 05:50:42;;;;;;;14.10;7.88;;;15.50;99.90;;;;;;4902283;29;20112;-77
2022/08/21 05:53:09;;;;;;;18.35;8.10;;;15.60;99.90;;;;;;4918719;29;20054;-77
2022/08/21 05:55:36;;;;;;;15.02;7.63;;;15.70;99.90;;;;;;4917005;29;20087;-77
2022/08/21 05:58:03;;;;;;;13.98;8.45;;;15.80;99.90;;;;;;4918473;29;20496;-77
2022/08/21 06:00:29;;;;;;;13.80;7.80;;;15.90;99.90;;;;;;4918378;29;20408;-77
2022/08/21 06:02:55;;;;;;;12.63;7.82;;;15.90;99.90;;;;;;4918703;29;20092;-77
2022/08/21 06:05:20;;;;;;;19.90;7.90;;;16.10;99.90;;;;;;4914570;29;20058;-77
2022/08/21 06:07:46;;;;;;;13.35;7.07;;;16.10;99.90;;;;;;4918532;29;20051;-77
2022/08/21 06:10:12;;;;;;;13.60;7.97;;;16.30;99.90;;;;;;4918549;29;20036;-77
2022/08/21 06:12:38;;;;;;;16.80;7.60;;;16.40;99.90;;;;;;4917072;29;20064;-77
2022/08/21 06:15:04;;;;;;;14.70;7.20;;;16.50;99.90;;;;;;4918394;29;20462;-76
2022/08/21 06:17:30;;;;;;;13.02;6.75;;;16.60;99.90;;;;;;4918471;29;20044;-77
2022/08/21 06:19:55;;;;;;;16.50;7.68;;;16.70;99.90;;;;;;4911397;29;20074;-77
2022/08/21 06:22:21;;;;;;;15.25;7.00;;;16.80;99.90;;;;;;4916838;29;20068;-77
2022/08/21 06:24:47;;;;;;;12.43;7.70;;;16.90;99.90;;;;;;4917873;29;20112;-76
2022/08/21 06:27:13;;;;;;;13.23;7.05;;;17.00;99.90;;;;;;4918238;29;20040;-77
2022/08/21 06:29:39;;;;;;;14.10;7.20;;;17.20;99.90;;;;;;4916553;29;20052;-77
2022/08/21 06:32:07;;;;;;;12.30;7.80;;;17.40;99.90;;;;;;4918168;29;20040;-77
2022/08/21 06:34:36;;;;;;;14.85;7.28;;;17.60;99.90;;;;;;4918172;29;20051;-76
2022/08/21 06:37:02;;;;;;;12.07;6.50;;;17.60;99.90;;;;;;4917956;29;20152;-76
2022/08/21 06:39:27;;;;;;;11.43;6.53;;;17.70;99.90;;;;;;4915282;29;20135;-76
2022/08/21 06:41:54;;;;;;;13.25;6.03;;;17.90;99.90;;;;;;4909927;29;20143;-76
2022/08/21 06:44:20;;;;;;;12.70;5.95;;;18.00;99.90;;;;;;4917713;29;20119;-76
2022/08/21 06:46:46;;;;;;;14.30;5.95;;;18.10;99.90;;;;;;4917847;29;20127;-76
2022/08/21 06:49:12;;;;;;;10.75;5.70;;;18.20;99.90;;;;;;4917654;29;20055;-77
2022/08/21 06:51:38;;;;;;;10.82;5.65;;;18.40;99.90;;;;;;4917683;29;20048;-76
2022/08/21 06:54:04;;;;;;;14.43;5.72;;;18.50;99.90;;;;;;4917863;29;20060;-76
2022/08/21 06:56:30;;;;;;;11.93;5.72;;;18.60;99.90;;;;;;4915065;29;20412;-77
2022/08/21 06:58:56;;;;;;;11.73;5.15;;;18.70;99.90;;;;;;4917754;29;20036;-77
2022/08/21 07:01:24;;;;;;;12.77;4.57;;;18.90;99.90;;;;;;4913864;29;20447;-76
2022/08/21 07:03:50;;;;;;;12.23;4.75;;;19.00;99.90;;;;;;4917432;29;20073;-76
2022/08/21 07:06:16;;;;;;;14.20;4.00;;;19.20;99.90;;;;;;4919934;29;20091;-76
2022/08/21 07:08:42;;;;;;;11.77;4.63;;;19.30;99.90;;;;;;4924445;29;20381;-77
2022/08/21 07:11:14;;;;;;;14.98;4.75;;;19.30;99.90;;;;;;4917151;29;20054;-77
2022/08/21 07:13:40;;;;;;;11.23;4.70;;;19.40;99.90;;;;;;4917305;29;20048;-77
2022/08/21 07:16:06;;;;;;;9.35;4.10;;;19.50;99.90;;;;;;4917351;29;20059;-76
2022/08/21 07:18:32;;;;;;;11.88;4.45;;;19.50;99.90;;;;;;4914821;29;20044;-76
2022/08/21 07:20:57;;;;;;;11.27;3.85;;;19.60;99.90;;;;;;4917000;29;20055;-76
2022/08/21 07:23:37;;;;;;;11.88;3.95;;;19.70;99.90;;;;;;4916971;29;20048;-77
2022/08/21 07:26:03;;;;;;;10.98;4.18;;;19.80;99.90;;;;;;4910834;29;20051;-77
2022/08/21 07:28:29;;;;;;;9.75;3.38;;;19.90;99.90;;;;;;4916978;29;20091;-76
2022/08/21 07:30:58;;;;;;;12.32;3.92;;;20.00;99.90;;;;;;4910103;29;20188;-76
2022/08/21 07:33:24;;;;;;;8.77;4.07;;;20.20;99.90;;;;;;4917100;29;20071;-76
2022/08/21 07:35:50;;;;;;;7.00;3.50;;;20.30;99.90;;;;;;4916851;29;20519;-77
2022/08/21 07:38:16;;;;;;;9.68;3.58;;;20.30;99.90;;;;;;4916851;29;20052;-76
2022/08/21 07:40:42;;;;;;;10.45;3.75;;;20.40;99.90;;;;;;4908102;29;20044;-76
2022/08/21 07:43:08;;;;;;;9.32;3.50;;;20.50;99.90;;;;;;4916853;29;20047;-76
2022/08/21 07:45:34;;;;;;;9.02;3.47;;;20.60;99.90;;;;;;4916718;29;20048;-76
2022/08/21 07:47:59;;;;;;;11.95;3.80;;;20.60;99.90;;;;;;4916723;29;20088;-76
2022/08/21 07:50:25;;;;;;;9.35;3.30;;;20.80;99.90;;;;;;4916703;29;20063;-76
2022/08/21 07:52:51;;;;;;;10.40;3.53;;;20.80;99.90;;;;;;4910129;29;20059;-76
2022/08/21 07:55:19;;;;;;;11.23;4.05;;;20.90;99.90;;;;;;4920537;29;20134;-75
2022/08/21 07:57:45;;;;;;;9.88;3.92;;;21.00;99.90;;;;;;4912257;29;20055;-76
2022/08/21 08:00:15;;;;;;;11.63;3.70;;;21.10;99.90;;;;;;4919392;29;20416;-76
2022/08/21 08:02:40;;;;;;;10.55;3.90;;;21.10;99.90;;;;;;4920643;29;20040;-76
2022/08/21 08:05:10;;;;;;;10.45;4.05;;;21.30;99.90;;;;;;4920269;29;20523;-77
2022/08/21 08:07:37;;;;;;;9.90;3.47;;;21.40;99.90;;;;;;4920554;29;20044;-77
2022/08/21 08:10:05;;;;;;;10.43;3.60;;;21.50;99.90;;;;;;4920241;29;20044;-76
2022/08/21 08:12:30;;;;;;;14.65;4.30;;;21.60;99.90;;;;;;4917770;29;20072;-76
2022/08/21 08:14:57;;;;;;;8.75;3.85;;;21.70;99.90;;;;;;4920368;29;20082;-76
2022/08/21 08:17:23;;;;;;;11.38;4.30;;;21.70;99.90;;;;;;4916690;29;20055;-78
2022/08/21 08:19:50;;;;;;;9.93;3.92;;;21.90;99.90;;;;;;4920178;29;20051;-77
2022/08/21 08:22:23;;;;;;;7.85;3.20;;;21.90;99.90;;;;;;4925101;29;20027;-76
2022/08/21 08:24:52;;;;;;;8.50;2.72;;;22.10;99.90;;;;;;4924442;29;20060;-76
2022/08/21 08:27:19;;;;;;;11.95;3.22;;;22.20;99.90;;;;;;4939075;29;20055;-76
2022/08/21 08:29:46;;;;;;;12.00;3.30;;;22.20;99.90;;;;;;4938991;29;20032;-77
2022/08/21 08:32:11;;;;;;;13.77;3.55;;;22.20;99.90;;;;;;4934280;29;20083;-77
2022/08/21 08:34:38;;;;;;;9.45;3.70;;;22.30;99.90;;;;;;4937898;29;20459;-77
2022/08/21 08:37:06;;;;;;;11.20;3.35;;;22.20;99.90;;;;;;4938808;29;20052;-76
2022/08/21 08:39:32;;;;;;;8.88;3.47;;;22.00;99.90;;;;;;4938960;29;20051;-76
2022/08/21 08:42:15;;;;;;;10.13;3.95;;;21.90;99.90;;;;;;4938715;29;20056;-76
2022/08/21 08:44:42;;;;;;;9.23;3.28;;;21.90;99.90;;;;;;4926876;29;20135;-76
2022/08/21 08:47:15;;;;;;;10.15;3.70;;;22.00;99.90;;;;;;4932646;29;20538;-77
2022/08/21 08:50:07;;;;;;;10.80;3.40;;;22.00;99.90;;;;;;4938306;29;20055;-76
2022/08/21 08:52:53;;;;;;;14.23;3.93;;;22.30;99.90;;;;;;4941192;29;20039;-76
2022/08/21 08:55:28;;;;;;;12.00;3.53;;;22.50;99.90;;;;;;4937326;29;20051;-76
2022/08/21 08:57:55;;;;;;;13.40;3.75;;;22.60;99.90;;;;;;4957726;29;20403;-76
2022/08/21 09:00:23;;;;;;;15.73;4.38;;;22.80;99.90;;;;;;4957580;29;20047;-76
2022/08/21 09:02:54;;;;;;;9.50;2.80;;;22.90;99.90;;;;;;4957771;29;20087;-76
2022/08/21 09:05:46;;;;;;;9.43;3.10;;;22.90;99.90;;;;;;4952655;28;20059;-76
2022/08/21 09:08:24;;;;;;;;;;;22.90;99.90;;;;;;4952942;29;20047;-77
2022/08/21 09:11:14;;;;;;;10.45;2.95;;;22.80;99.90;;;;;;4956799;29;19997;-76
2022/08/21 09:13:50;;;;;;;9.45;2.92;;;22.90;99.90;;;;;;4957640;28;20068;-76
2022/08/21 09:16:33;;;;;;;9.30;2.40;;;23.10;99.90;;;;;;4957617;29;20051;-76
2022/08/21 09:19:36;;;;;;;6.85;2.20;;;23.20;99.90;;;;;;4957313;29;20058;-76
2022/08/21 09:22:14;;;;;;;6.57;2.58;;;23.20;99.90;;;;;;4950866;29;20570;-76
2022/08/21 09:24:51;;;;;;;13.70;2.97;;;23.10;99.90;;;;;;4957018;28;20095;-76
2022/08/21 09:27:19;;;;;;;10.90;2.83;;;22.80;99.90;;;;;;4957370;29;20126;-76
2022/08/21 09:29:48;;;;;;;8.57;2.75;;;22.80;99.90;;;;;;4957058;29;20051;-75
2022/08/21 09:32:18;;;;;;;7.97;2.55;;;23.00;99.90;;;;;;4956830;29;20566;-76
2022/08/21 09:35:14;;;;;;;9.05;2.47;;;23.30;99.90;;;;;;4957090;29;20402;-76
2022/08/21 09:38:04;;;;;;;7.68;2.83;;;23.60;99.90;;;;;;4939349;29;20126;-76
2022/08/21 09:40:42;;;;;;;9.60;2.20;;;23.80;99.90;;;;;;4956821;28;20047;-76
2022/08/21 09:43:11;;;;;;;6.75;2.13;;;23.70;99.90;;;;;;4951607;29;20122;-76
2022/08/21 09:45:38;;;;;;;6.68;2.70;;;23.50;99.90;;;;;;4956857;29;20079;-76
2022/08/21 09:48:24;;;;;;;5.43;1.95;;;23.10;99.90;;;;;;4950362;29;20058;-76
2022/08/21 09:50:52;;;;;;;6.10;2.63;;;23.00;99.90;;;;;;4955280;29;20043;-77
2022/08/21 09:53:25;;;;;;;7.35;2.72;;;22.80;99.90;;;;;;4955395;29;20126;-76
2022/08/21 09:58:47;;;;;;;5.78;2.03;;;23.00;99.90;;;;;;4947351;29;20130;-77
2022/08/21 10:01:20;;;;;;;8.88;2.60;;;23.20;99.90;;;;;;4956745;28;20138;-78
2022/08/21 10:03:46;;;;;;;6.75;2.08;;;23.50;99.90;;;;;;4956444;29;20491;-77
2022/08/21 10:06:24;;;;;;;9.80;2.58;;;23.30;99.90;;;;;;4951540;29;20043;-78
2022/08/21 10:08:49;;;;;;;6.63;2.40;;;23.00;99.90;;;;;;4955360;29;20427;-77
2022/08/21 10:11:16;;;;;;;7.50;2.13;;;22.80;99.90;;;;;;4956509;29;20093;-77
2022/08/21 10:14:12;;;;;;;9.05;3.15;;;22.70;99.90;;;;;;4947206;29;20502;-77
2022/08/21 10:16:53;;;;;;;7.05;2.15;;;23.00;99.90;;;;;;4955203;28;20055;-77
2022/08/21 10:19:44;;;;;;;7.63;2.63;;;23.40;99.90;;;;;;4956105;29;20503;-78
2022/08/21 10:22:29;;;;;;;8.40;2.17;;;23.60;99.90;;;;;;4951007;29;20075;-77
2022/08/21 10:25:16;;;;;;;8.18;2.47;;;23.50;99.90;;;;;;4955869;28;20138;-77
2022/08/21 10:28:06;;;;;;;8.32;2.60;;;23.30;99.90;;;;;;4956165;29;20043;-77
2022/08/21 10:30:44;;;;;;;8.20;2.33;;;23.20;99.90;;;;;;4953685;29;20047;-78
2022/08/21 10:33:28;;;;;;;6.78;2.10;;;23.10;99.90;;;;;;4951009;29;20082;-77
2022/08/21 10:36:16;;;;;;;4.95;1.92;;;23.30;99.90;;;;;;4956379;28;20047;-77
2022/08/21 10:39:05;;;;;;;5.80;2.13;;;23.20;99.90;;;;;;4955830;29;20431;-77
2022/08/21 10:41:49;;;;;;;6.97;1.80;;;23.00;99.90;;;;;;4956193;29;20407;-77
2022/08/21 10:44:47;;;;;;;10.23;2.03;;;22.90;99.90;;;;;;4955900;29;20075;-77
2022/08/21 10:47:32;;;;;;;7.78;2.40;;;22.60;99.90;;;;;;4955867;29;20087;-77
2022/08/21 10:50:28;;;;;;;8.45;1.83;;;22.60;99.90;;;;;;4949019;29;20082;-77
2022/08/21 10:53:00;;;;;;;6.97;1.85;;;22.50;99.90;;;;;;4955824;29;20047;-78
2022/08/21 10:55:33;;;;;;;9.75;2.00;;;22.50;99.90;;;;;;4955617;29;20058;-77
2022/08/21 10:58:16;;;;;;;7.72;2.03;;;22.40;99.90;;;;;;4955934;29;20072;-77
2022/08/21 11:00:46;;;;;;;8.20;2.33;;;22.40;99.90;;;;;;4946776;29;20051;-77
2022/08/21 11:03:29;;;;;;;7.15;1.70;;;22.60;99.90;;;;;;4955564;28;20113;-77
2022/08/21 11:06:04;;;;;;;4.22;1.40;;;23.00;99.90;;;;;;4948343;29;20043;-78
2022/08/21 11:12:29;;;;;;;3.58;0.70;;;23.30;99.90;;;;;;4920143;29;20051;-77
2022/08/21 11:25:33;;;;;;;3.67;1.10;;;24.20;99.90;;;;;;5314340;23;20051;-77
2022/08/21 11:28:20;;;;;;;4.90;1.63;;;24.30;99.90;;;;;;4919006;29;20102;-77
2022/08/21 11:31:16;;;;;;;4.65;1.27;;;24.30;99.90;;;;;;4936434;29;20114;-78
2022/08/21 11:34:16;;;;;;;7.55;1.90;;;24.10;99.90;;;;;;4919319;29;20565;-78
2022/08/21 11:37:10;;;;;;;5.50;1.52;;;24.10;99.90;;;;;;4936361;29;20050;-78
2022/08/21 11:39:57;;;;;;;6.80;1.45;;;24.30;99.90;;;;;;4919298;29;20062;-78
2022/08/21 11:43:04;;;;;;;6.90;1.30;;;24.40;99.90;;;;;;4919253;29;20395;-78
2022/08/21 11:45:39;;;;;;;5.05;1.15;;;24.50;99.90;;;;;;4843400;29;20057;-77
2022/08/21 11:48:23;;;;;;;5.95;1.08;;;24.60;99.90;;;;;;4911513;29;20130;-78
2022/08/21 11:50:51;;;;;;;3.92;1.13;;;24.60;99.90;;;;;;4918964;29;20055;-78
2022/08/21 11:53:32;;;;;;;8.32;1.73;;;24.60;99.90;;;;;;4936200;29;20068;-77
2022/08/21 11:56:16;;;;;;;5.85;1.30;;;24.70;99.90;;;;;;4918889;29;20059;-78
2022/08/21 11:58:48;;;;;;;4.53;1.42;;;24.80;99.90;;;;;;4936303;29;20047;-78
2022/08/21 12:01:28;;;;;;;5.75;1.50;;;24.90;99.90;;;;;;4918986;29;20051;-77
2022/08/21 12:04:01;;;;;;;7.85;1.48;;;25.10;99.90;;;;;;4919043;29;20055;-78
2022/08/21 12:06:36;;;;;;;4.35;1.25;;;25.10;99.90;;;;;;4935668;29;20048;-78
2022/08/21 12:09:24;;;;;;;6.50;1.42;;;25.00;99.90;;;;;;4919016;29;20395;-78
2022/08/21 12:12:11;;;;;;;5.13;1.35;;;25.10;99.90;;;;;;4935936;29;20044;-78
2022/08/21 12:14:47;;;;;;;4.57;1.33;;;25.30;99.90;;;;;;4936053;29;20044;-78
2022/08/21 12:17:35;;;;;;;4.93;1.30;;;25.30;99.90;;;;;;4919064;29;20055;-78
2022/08/21 12:20:21;;;;;;;6.43;1.48;;;25.30;99.90;;;;;;4935994;29;20107;-78
2022/08/21 12:23:15;;;;;;;4.60;1.50;;;25.30;99.90;;;;;;4880828;29;20090;-78
2022/08/21 12:25:59;;;;;;;5.35;1.30;;;25.20;99.90;;;;;;4935224;29;20063;-77
2022/08/21 12:28:26;;;;;;;4.60;1.40;;;25.30;99.90;;;;;;4935933;29;20059;-77
2022/08/21 12:30:51;;;;;;;5.40;1.42;;;25.40;99.90;;;;;;4935697;29;20035;-77
2022/08/21 12:33:31;;;;;;;4.93;1.35;;;25.30;99.90;;;;;;4918488;29;20052;-77
2022/08/21 12:36:10;;;;;;;5.10;1.48;;;25.30;99.90;;;;;;4935834;29;20051;-77
2022/08/21 12:38:51;;;;;;;7.20;1.98;;;25.20;99.90;;;;;;4935852;29;20098;-77
2022/08/21 12:41:22;;;;;;;4.63;1.58;;;25.10;99.90;;;;;;4938500;29;20546;-77
2022/08/21 12:43:59;;;;;;;4.40;1.40;;;25.20;99.90;;;;;;4939078;29;20044;-77
2022/08/21 12:46:49;;;;;;;6.70;1.58;;;25.40;99.90;;;;;;4921983;29;20098;-77
2022/08/21 12:49:30;;;;;;;8.95;1.75;;;25.30;99.90;;;;;;4922018;29;20051;-77
2022/08/21 12:52:20;;;;;;;3.85;1.50;;;25.10;99.90;;;;;;4938782;29;20508;-77
2022/08/21 12:54:46;;;;;;;4.88;1.45;;;24.90;99.90;;;;;;4921972;29;20052;-78
2022/08/21 12:57:24;;;;;;;7.45;1.70;;;24.80;99.90;;;;;;4938607;29;20086;-78
2022/08/21 12:59:54;;;;;;;6.10;1.50;;;24.80;99.90;;;;;;4938607;29;20044;-78
2022/08/21 13:02:24;;;;;;;7.18;1.88;;;24.90;99.90;;;;;;4921629;29;20050;-78
2022/08/21 13:04:50;;;;;;;6.72;1.70;;;24.90;99.90;;;;;;4938686;29;20126;-78
2022/08/21 13:07:25;;;;;;;6.50;2.05;;;24.80;99.90;;;;;;4938765;29;20066;-78
2022/08/21 13:09:58;;;;;;;5.78;2.17;;;24.90;99.90;;;;;;4938311;29;20487;-78
2022/08/21 13:12:25;;;;;;;5.28;1.52;;;24.80;99.90;;;;;;4938783;29;20050;-78
2022/08/21 13:14:54;;;;;;;5.03;1.15;;;24.70;99.90;;;;;;4921239;29;20051;-78
2022/08/21 13:17:23;;;;;;;4.70;1.33;;;24.80;99.90;;;;;;4938540;29;20040;-78